createdAt,value
2022-09-10T00:02:17.390Z,100401.44
2022-09-10T00:04:59.397Z,100402.91
2022-09-10T00:07:39.043Z,100398.59
2022-09-10T00:10:18.761Z,100397.22
2022-09-10T00:12:59.205Z,100400.97
2022-09-10T00:15:41.339Z,100401.81
2022-09-10T00:18:23.946Z,100401.75
2022-09-10T00:21:08.031Z,100406.84
2022-09-10T00:23:48.969Z,100402.00
2022-09-10T00:26:30.016Z,100408.38
2022-09-10T00:29:11.873Z,100398.44
2022-09-10T00:31:54.795Z,100391.56
2022-09-10T00:34:36.276Z,100394.97
2022-09-10T00:37:16.130Z,100397.03
2022-09-10T00:39:55.388Z,100397.66
2022-09-10T00:42:34.049Z,100393.97
2022-09-10T00:45:19.667Z,100394.34
2022-09-10T00:48:03.484Z,100403.00
2022-09-10T00:50:44.816Z,100401.94
2022-09-10T00:53:28.329Z,100399.69
2022-09-10T00:56:08.770Z,100399.31
2022-09-10T00:58:49.136Z,100401.63
2022-09-10T01:01:31.070Z,100396.44
2022-09-10T01:04:12.170Z,100398.03
2022-09-10T01:06:52.831Z,100396.38
2022-09-10T01:09:34.270Z,100398.03
2022-09-10T01:12:26.569Z,100398.13
2022-09-10T01:15:15.670Z,100395.63
2022-09-10T01:18:04.343Z,100394.06
2022-09-10T01:21:01.616Z,100402.91
2022-09-10T01:24:14.770Z,100403.94
2022-09-10T01:27:11.141Z,100405.59
2022-09-10T01:29:58.455Z,100410.31
2022-09-10T01:32:47.418Z,100405.59
2022-09-10T01:35:36.427Z,100410.94
2022-09-10T01:38:22.625Z,100406.63
2022-09-10T01:41:17.133Z,100404.38
2022-09-10T01:43:55.994Z,100403.16
2022-09-10T01:46:41.395Z,100404.81
2022-09-10T01:49:28.421Z,100407.50
2022-09-10T01:52:18.558Z,100406.88
2022-09-10T01:55:06.609Z,100412.22
2022-09-10T01:57:55.266Z,100418.22
2022-09-10T02:00:42.675Z,100415.66
2022-09-10T02:03:26.467Z,100409.34
2022-09-10T02:06:09.366Z,100413.44
2022-09-10T02:08:50.867Z,100411.59
2022-09-10T02:11:32.932Z,100408.59
2022-09-10T02:14:17.049Z,100408.41
2022-09-10T02:17:27.078Z,100424.19
2022-09-10T02:20:09.361Z,100420.50
2022-09-10T02:22:53.442Z,100433.16
2022-09-10T02:25:34.505Z,100429.44
2022-09-10T02:28:16.780Z,100432.38
2022-09-10T02:31:01.625Z,100429.69
2022-09-10T02:33:42.029Z,100432.50
2022-09-10T02:36:26.027Z,100439.06
2022-09-10T02:39:05.663Z,100439.34
2022-09-10T02:41:45.456Z,100438.50
2022-09-10T02:44:27.062Z,100445.16
2022-09-10T02:47:06.808Z,100451.81
2022-09-10T02:49:47.389Z,100441.78
2022-09-10T02:52:42.955Z,100438.19
2022-09-10T02:55:25.701Z,100439.28
2022-09-10T02:58:06.989Z,100438.81
2022-09-10T03:00:49.743Z,100435.63
2022-09-10T03:03:30.611Z,100441.69
2022-09-10T03:06:12.088Z,100443.91
2022-09-10T03:08:55.554Z,100446.00
2022-09-10T03:11:39.702Z,100442.69
2022-09-10T03:14:22.185Z,100441.84
2022-09-10T03:17:05.100Z,100445.63
2022-09-10T03:19:45.467Z,100442.88
2022-09-10T03:22:25.295Z,100440.41
2022-09-10T03:25:05.923Z,100441.78
2022-09-10T03:27:46.530Z,100445.09
2022-09-10T03:30:28.304Z,100446.03
2022-09-10T03:33:08.075Z,100451.28
2022-09-10T03:35:49.202Z,100444.81
2022-09-10T03:38:32.554Z,100439.41
2022-09-10T03:41:14.333Z,100442.63
2022-09-10T03:43:55.297Z,100438.38
2022-09-10T03:46:34.738Z,100440.59
2022-09-10T03:49:16.115Z,100434.94
2022-09-10T03:51:56.099Z,100434.22
2022-09-10T03:54:37.825Z,100440.78
2022-09-10T03:57:19.140Z,100440.41
2022-09-10T03:59:58.916Z,100441.66
2022-09-10T04:02:41.615Z,100430.19
2022-09-10T04:05:27.546Z,100429.16
2022-09-10T04:08:07.425Z,100437.41
2022-09-10T04:10:49.344Z,100425.31
2022-09-10T04:13:31.602Z,100421.63
2022-09-10T04:16:12.278Z,100413.38
2022-09-10T04:18:54.203Z,100421.88
2022-09-10T04:21:34.659Z,100419.88
2022-09-10T04:24:14.444Z,100420.44
2022-09-10T04:26:54.307Z,100416.31
2022-09-10T04:29:36.016Z,100412.16
2022-09-10T04:32:15.871Z,100412.44
2022-09-10T04:34:55.284Z,100407.47
2022-09-10T04:37:35.621Z,100406.72
2022-09-10T04:40:17.484Z,100402.72
2022-09-10T04:42:59.929Z,100402.88
2022-09-10T04:45:41.474Z,100409.09
2022-09-10T04:48:21.084Z,100405.88
2022-09-10T04:51:15.761Z,100392.22
2022-09-10T04:53:59.337Z,100386.50
2022-09-10T04:56:42.657Z,100389.09
2022-09-10T04:59:22.349Z,100385.75
2022-09-10T05:02:03.678Z,100384.91
2022-09-10T05:04:45.588Z,100395.81
2022-09-10T05:07:24.968Z,100394.25
2022-09-10T05:10:05.264Z,100393.50
2022-09-10T05:12:47.960Z,100405.03
2022-09-10T05:15:29.584Z,100399.81
2022-09-10T05:18:09.171Z,100399.59
2022-09-10T05:20:49.191Z,100390.19
2022-09-10T05:23:27.403Z,100388.34
2022-09-10T05:26:10.032Z,100398.34
2022-09-10T05:28:51.144Z,100400.13
2022-09-10T05:31:31.340Z,100394.25
2022-09-10T05:34:11.278Z,100392.69
2022-09-10T05:36:51.523Z,100394.25
2022-09-10T05:39:30.630Z,100391.78
2022-09-10T05:42:10.503Z,100397.19
2022-09-10T05:44:51.892Z,100399.50
2022-09-10T05:47:31.016Z,100393.94
2022-09-10T05:50:15.382Z,100399.41
2022-09-10T05:52:54.917Z,100394.25
2022-09-10T05:55:35.892Z,100390.38
2022-09-10T05:58:16.205Z,100391.81
2022-09-10T06:00:55.050Z,100392.47
2022-09-10T06:03:34.441Z,100382.59
2022-09-10T06:06:15.320Z,100383.03
2022-09-10T06:09:01.465Z,100388.34
2022-09-10T06:12:00.192Z,100386.31
2022-09-10T06:14:40.179Z,100386.13
2022-09-10T06:17:21.578Z,100396.97
2022-09-10T06:20:01.403Z,100400.03
2022-09-10T06:22:48.044Z,100405.91
2022-09-10T06:25:37.993Z,100409.06
2022-09-10T06:28:19.052Z,100409.06
2022-09-10T06:30:57.993Z,100405.59
2022-09-10T06:33:37.443Z,100414.03
2022-09-10T06:36:18.467Z,100418.94
2022-09-10T06:38:59.778Z,100430.28
2022-09-10T06:41:39.689Z,100423.91
2022-09-10T06:44:24.433Z,100424.53
2022-09-10T06:47:50.898Z,100433.84
2022-09-10T06:50:13.037Z,100441.81
2022-09-10T06:52:56.959Z,100439.84
2022-09-10T06:55:37.298Z,100447.78
2022-09-10T06:58:28.905Z,100440.59
2022-09-10T07:01:12.431Z,100443.06
2022-09-10T07:03:57.525Z,100451.78
2022-09-10T07:06:38.862Z,100446.34
2022-09-10T07:09:27.528Z,100449.88
2022-09-10T07:12:11.670Z,100451.16
2022-09-10T07:14:53.176Z,100463.81
2022-09-10T07:17:35.667Z,100469.22
2022-09-10T07:20:55.366Z,100472.97
2022-09-10T07:23:34.705Z,100478.94
2022-09-10T07:26:16.817Z,100483.38
2022-09-10T07:29:07.734Z,100491.66
2022-09-10T07:31:48.919Z,100497.72
2022-09-10T07:34:33.148Z,100505.75
2022-09-10T07:37:16.539Z,100499.84
2022-09-10T07:39:59.762Z,100518.50
2022-09-10T07:42:39.338Z,100523.50
2022-09-10T07:45:17.571Z,100519.69
2022-09-10T07:48:00.526Z,100538.47
2022-09-10T07:50:39.937Z,100534.84
2022-09-10T07:53:20.794Z,100547.06
2022-09-10T07:56:15.044Z,100552.69
2022-09-10T07:58:57.353Z,100553.78
2022-09-10T08:01:42.201Z,100556.50
2022-09-10T08:04:23.408Z,100555.09
2022-09-10T08:07:05.235Z,100559.69
2022-09-10T08:09:45.165Z,100573.75
2022-09-10T08:12:28.167Z,100588.06
2022-09-10T08:15:11.127Z,100578.69
2022-09-10T08:17:52.576Z,100584.72
2022-09-10T08:20:35.284Z,100591.97
2022-09-10T08:23:27.419Z,100602.16
2022-09-10T08:26:10.452Z,100606.94
2022-09-10T08:28:53.764Z,100605.75
2022-09-10T08:31:34.561Z,100618.19
2022-09-10T08:34:20.455Z,100619.06
2022-09-10T08:37:19.143Z,100634.56
2022-09-10T08:39:59.879Z,100636.63
2022-09-10T08:43:04.106Z,100652.53
2022-09-10T08:45:48.160Z,100639.63
2022-09-10T08:48:32.345Z,100649.50
2022-09-10T08:51:15.879Z,100650.63
2022-09-10T08:54:00.581Z,100661.78
2022-09-10T08:56:41.542Z,100662.28
2022-09-10T08:59:22.981Z,100677.16
2022-09-10T09:02:07.203Z,100669.56
2022-09-10T09:04:52.054Z,100681.06
2022-09-10T09:07:48.318Z,100673.25
2022-09-10T09:10:46.039Z,100662.13
2022-09-10T09:13:55.343Z,100664.75
2022-09-10T09:16:42.168Z,100666.13
2022-09-10T09:19:31.786Z,100682.84
2022-09-10T09:22:18.248Z,100686.97
2022-09-10T09:25:09.845Z,100692.16
2022-09-10T09:27:51.091Z,100691.56
2022-09-10T09:30:33.262Z,100696.34
2022-09-10T09:33:19.720Z,100696.19
2022-09-10T09:36:03.744Z,100704.00
2022-09-10T09:38:50.795Z,100703.53
2022-09-10T09:41:36.305Z,100696.19
2022-09-10T09:44:20.031Z,100687.38
2022-09-10T09:47:00.449Z,100688.28
2022-09-10T09:49:40.523Z,100694.19
2022-09-10T09:52:22.223Z,100690.50
2022-09-10T10:05:26.616Z,100692.84
2022-09-10T10:08:05.844Z,100684.69
2022-09-10T10:10:52.456Z,100677.53
2022-09-10T10:13:39.428Z,100689.78
2022-09-10T10:16:22.611Z,100682.59
2022-09-10T10:19:02.937Z,100689.28
2022-09-10T10:21:46.914Z,100680.16
2022-09-10T10:24:32.949Z,100673.41
2022-09-10T10:27:15.395Z,100673.94
2022-09-10T10:29:56.903Z,100677.13
2022-09-10T10:32:53.354Z,100684.56
2022-09-10T10:35:37.443Z,100688.91
2022-09-10T10:38:31.105Z,100683.25
2022-09-10T10:41:29.575Z,100689.25
2022-09-10T10:44:23.182Z,100681.56
2022-09-10T10:47:15.442Z,100675.91
2022-09-10T10:50:04.202Z,100701.03
2022-09-10T10:52:54.089Z,100697.41
2022-09-10T10:55:58.448Z,100693.97
2022-09-10T10:58:52.250Z,100687.19
2022-09-10T11:01:38.360Z,100696.16
2022-09-10T11:04:27.922Z,100695.97
2022-09-10T11:07:14.434Z,100700.78
2022-09-10T11:09:59.827Z,100687.63
2022-09-10T11:12:42.636Z,100692.41
2022-09-10T11:15:29.358Z,100686.47
2022-09-10T11:18:16.414Z,100676.50
2022-09-10T11:21:02.107Z,100674.75
2022-09-10T11:23:46.072Z,100673.19
2022-09-10T11:26:30.029Z,100675.88
2022-09-10T11:29:22.274Z,100681.31
2022-09-10T11:32:06.779Z,100665.66
2022-09-10T11:34:55.461Z,100671.50
2022-09-10T11:37:47.746Z,100681.84
2022-09-10T11:40:32.158Z,100667.56
2022-09-10T11:43:14.301Z,100665.78
2022-09-10T11:45:58.703Z,100648.81
2022-09-10T11:48:43.543Z,100661.19
2022-09-10T11:51:27.975Z,100657.91
2022-09-10T11:54:13.897Z,100657.66
2022-09-10T11:56:59.589Z,100667.53
2022-09-10T11:59:56.554Z,100655.84
2022-09-10T12:03:17.161Z,100650.59
2022-09-10T12:06:07.119Z,100668.78
2022-09-10T12:09:00.946Z,100663.94
2022-09-10T12:11:44.990Z,100665.72
2022-09-10T12:14:25.379Z,100666.69
2022-09-10T12:17:12.194Z,100667.38
2022-09-10T12:19:57.191Z,100662.66
2022-09-10T12:22:41.850Z,100660.16
2022-09-10T12:25:34.748Z,100665.28
2022-09-10T12:28:47.116Z,100671.66
2022-09-10T12:31:28.872Z,100671.19
2022-09-10T12:34:17.502Z,100671.56
2022-09-10T12:37:28.007Z,100675.91
2022-09-10T12:40:49.571Z,100662.09
2022-09-10T12:43:55.902Z,100672.94
2022-09-10T12:46:36.481Z,100671.84
2022-09-10T12:50:03.030Z,100672.25
2022-09-10T12:53:31.204Z,100669.09
2022-09-10T12:56:29.213Z,100662.66
2022-09-10T12:59:37.860Z,100658.91
2022-09-10T13:02:23.119Z,100659.09
2022-09-10T13:05:07.255Z,100657.94
2022-09-10T13:07:49.218Z,100658.31
2022-09-10T13:10:34.298Z,100662.84
2022-09-10T13:13:33.929Z,100665.31
2022-09-10T13:16:40.621Z,100665.47
2022-09-10T13:19:50.104Z,100656.19
2022-09-10T13:23:06.045Z,100648.38
2022-09-10T13:25:47.646Z,100651.63
2022-09-10T13:29:05.873Z,100649.00
2022-09-10T13:31:59.097Z,100652.69
2022-09-10T13:35:10.396Z,100642.63
2022-09-10T13:38:19.657Z,100651.59
2022-09-10T13:41:13.109Z,100657.06
2022-09-10T13:44:09.669Z,100641.56
2022-09-10T13:46:56.552Z,100647.25
2022-09-10T13:49:41.242Z,100646.41
2022-09-10T13:52:26.015Z,100638.00
2022-09-10T13:55:08.593Z,100634.03
2022-09-10T13:57:51.077Z,100647.81
2022-09-10T14:00:35.651Z,100652.81
2022-09-10T14:03:22.782Z,100644.38
2022-09-10T14:06:05.257Z,100653.47
2022-09-10T14:09:06.030Z,100648.16
2022-09-10T14:11:47.339Z,100654.94
2022-09-10T14:14:31.673Z,100662.34
2022-09-10T14:17:13.751Z,100668.06
2022-09-10T14:19:59.278Z,100665.41
2022-09-10T14:22:38.992Z,100657.19
2022-09-10T14:25:31.566Z,100672.78
2022-09-10T14:28:20.448Z,100665.41
2022-09-10T14:31:29.941Z,100664.34
2022-09-10T14:34:27.531Z,100653.06
2022-09-10T14:37:26.712Z,100652.13
2022-09-10T14:40:17.879Z,100653.09
2022-09-10T14:43:15.219Z,100660.53
2022-09-10T14:45:55.853Z,100662.38
2022-09-10T14:48:37.345Z,100655.91
2022-09-10T14:51:22.803Z,100656.81
2022-09-10T14:54:02.935Z,100653.34
2022-09-10T14:56:44.738Z,100660.88
2022-09-10T14:59:30.635Z,100651.34
2022-09-10T15:02:16.570Z,100641.66
2022-09-10T15:04:55.841Z,100648.63
2022-09-10T15:07:38.416Z,100651.09
2022-09-10T15:10:20.470Z,100641.09
2022-09-10T15:13:02.913Z,100639.44
2022-09-10T15:15:45.738Z,100641.44
2022-09-10T15:18:25.267Z,100645.53
2022-09-10T15:21:05.895Z,100631.09
2022-09-10T15:23:48.131Z,100648.25
2022-09-10T15:26:28.648Z,100644.41
2022-09-10T15:29:09.393Z,100644.88
2022-09-10T15:31:51.268Z,100645.66
2022-09-10T15:34:30.495Z,100643.56
2022-09-10T15:37:10.968Z,100648.34
2022-09-10T15:39:52.590Z,100638.59
2022-09-10T15:42:32.846Z,100650.22
2022-09-10T15:45:13.120Z,100646.88
2022-09-10T15:47:57.573Z,100653.50
2022-09-10T15:50:38.231Z,100652.94
2022-09-10T15:53:21.174Z,100649.00
2022-09-10T15:56:04.982Z,100643.75
2022-09-10T15:58:48.827Z,100646.44
2022-09-10T16:01:29.658Z,100649.16
2022-09-10T16:04:09.785Z,100649.66
2022-09-10T16:06:49.993Z,100659.06
2022-09-10T16:09:29.594Z,100655.75
2022-09-10T16:12:28.151Z,100645.97
2022-09-10T16:15:08.528Z,100644.56
2022-09-10T16:17:48.960Z,100656.38
2022-09-10T16:20:27.607Z,100653.34
2022-09-10T16:23:07.356Z,100647.78
2022-09-10T16:25:52.939Z,100649.53
2022-09-10T16:28:36.579Z,100659.28
2022-09-10T16:31:17.136Z,100665.69
2022-09-10T16:33:58.619Z,100660.81
2022-09-10T16:36:39.265Z,100663.44
2022-09-10T16:39:19.472Z,100663.75
2022-09-10T16:42:13.508Z,100662.13
2022-09-10T16:44:53.244Z,100666.72
2022-09-10T16:47:33.584Z,100659.28
2022-09-10T16:50:14.247Z,100666.19
2022-09-10T16:52:54.609Z,100663.31
2022-09-10T16:55:32.871Z,100677.50
2022-09-10T16:58:12.914Z,100676.13
2022-09-10T17:00:52.132Z,100676.53
2022-09-10T17:03:31.262Z,100673.47
2022-09-10T17:06:15.783Z,100679.53
2022-09-10T17:08:58.034Z,100677.16
2022-09-10T17:11:37.812Z,100684.94
2022-09-10T17:14:19.640Z,100681.22
2022-09-10T17:17:01.264Z,100687.94
2022-09-10T17:19:44.920Z,100689.84
2022-09-10T17:22:25.001Z,100692.06
2022-09-10T17:25:06.741Z,100688.75
2022-09-10T17:27:46.173Z,100683.59
2022-09-10T17:30:26.037Z,100683.88
2022-09-10T17:33:07.780Z,100682.22
2022-09-10T17:35:56.691Z,100689.06
2022-09-10T17:38:37.647Z,100689.31
2022-09-10T17:41:16.810Z,100688.91
2022-09-10T17:43:56.885Z,100687.03
2022-09-10T17:46:38.226Z,100692.47
2022-09-10T17:49:29.945Z,100692.28
2022-09-10T17:52:09.440Z,100700.38
2022-09-10T17:54:47.790Z,100695.41
2022-09-10T17:57:29.009Z,100701.88
2022-09-10T18:00:09.034Z,100698.16
2022-09-10T18:03:01.723Z,100695.63
2022-09-10T18:05:42.792Z,100706.44
2022-09-10T18:08:23.012Z,100698.97
2022-09-10T18:11:06.602Z,100704.38
2022-09-10T18:13:49.617Z,100709.78
2022-09-10T18:16:32.872Z,100711.03
2022-09-10T18:19:15.775Z,100705.41
2022-09-10T18:21:59.742Z,100718.88
2022-09-10T18:24:39.353Z,100716.81
2022-09-10T18:27:21.121Z,100722.63
2022-09-10T18:30:02.607Z,100725.69
2022-09-10T18:32:42.770Z,100734.00
2022-09-10T18:35:22.955Z,100729.03
2022-09-10T18:38:05.512Z,100728.81
2022-09-10T18:40:46.143Z,100737.09
2022-09-10T18:43:26.827Z,100734.81
2022-09-10T18:46:07.468Z,100737.69
2022-09-10T18:48:48.196Z,100748.25
2022-09-10T18:51:29.841Z,100746.19
2022-09-10T18:54:11.036Z,100747.00
2022-09-10T18:56:53.197Z,100742.25
2022-09-10T18:59:31.613Z,100747.63
2022-09-10T19:02:13.405Z,100749.88
2022-09-10T19:05:10.664Z,100756.69
2022-09-10T19:07:51.712Z,100758.53
2022-09-10T19:10:32.031Z,100770.13
2022-09-10T19:13:12.685Z,100768.03
2022-09-10T19:15:56.810Z,100772.19
2022-09-10T19:18:58.166Z,100779.84
2022-09-10T19:21:38.352Z,100787.06
2022-09-10T19:24:19.357Z,100790.81
2022-09-10T19:27:04.062Z,100798.22
2022-09-10T19:29:47.160Z,100796.19
2022-09-10T19:32:26.537Z,100801.56
2022-09-10T19:35:06.711Z,100805.72
2022-09-10T19:37:48.165Z,100811.88
2022-09-10T19:40:27.518Z,100799.19
2022-09-10T19:43:07.357Z,100783.50
2022-09-10T19:45:49.189Z,100772.06
2022-09-10T19:48:30.629Z,100768.94
2022-09-10T19:51:13.407Z,100779.19
2022-09-10T19:53:53.049Z,100776.91
2022-09-10T19:56:35.115Z,100766.97
2022-09-10T19:59:16.107Z,100769.19
2022-09-10T20:01:55.800Z,100767.75
2022-09-10T20:04:36.049Z,100769.78
2022-09-10T20:07:36.379Z,100765.84
2022-09-10T20:10:18.371Z,100768.88
2022-09-10T20:12:58.837Z,100768.84
2022-09-10T20:15:45.315Z,100764.66
2022-09-10T20:18:28.468Z,100763.59
2022-09-10T20:21:13.871Z,100766.66
2022-09-10T20:23:56.427Z,100775.31
2022-09-10T20:26:38.134Z,100771.56
2022-09-10T20:29:19.377Z,100769.06
2022-09-10T20:32:00.316Z,100768.63
2022-09-10T20:34:40.071Z,100768.34
2022-09-10T20:37:19.534Z,100767.09
2022-09-10T20:40:01.470Z,100765.19
2022-09-10T20:42:40.723Z,100764.91
2022-09-10T20:45:21.354Z,100765.31
2022-09-10T20:48:01.929Z,100759.31
2022-09-10T20:50:41.807Z,100753.50
2022-09-10T20:53:23.613Z,100756.78
2022-09-10T20:56:17.725Z,100753.44
2022-09-10T20:58:57.822Z,100756.50
2022-09-10T21:01:39.636Z,100767.44
2022-09-10T21:04:19.794Z,100761.63
2022-09-10T21:07:00.388Z,100765.28
2022-09-10T21:09:38.975Z,100765.66
2022-09-10T21:12:18.440Z,100765.19
2022-09-10T21:14:58.172Z,100764.94
2022-09-10T21:17:38.008Z,100760.16
2022-09-10T21:20:16.740Z,100765.25
2022-09-10T21:22:57.991Z,100770.88
2022-09-10T21:25:37.451Z,100774.97
2022-09-10T21:28:17.395Z,100772.03
2022-09-10T21:31:02.796Z,100775.25
2022-09-10T21:33:43.654Z,100779.16
2022-09-10T21:36:25.357Z,100772.50
2022-09-10T21:39:06.164Z,100776.41
2022-09-10T21:41:48.980Z,100782.16
2022-09-10T21:44:28.884Z,100778.97
2022-09-10T21:47:07.672Z,100781.41
2022-09-10T21:49:47.202Z,100779.28
2022-09-10T21:52:28.723Z,100785.03
2022-09-10T21:55:10.597Z,100786.22
2022-09-10T21:57:51.086Z,100790.91
2022-09-10T22:00:33.075Z,100791.03
2022-09-10T22:03:12.313Z,100794.72
2022-09-10T22:05:52.223Z,100800.47
2022-09-10T22:08:33.155Z,100801.47
2022-09-10T22:11:15.330Z,100797.47
2022-09-10T22:13:55.292Z,100803.22
2022-09-10T22:16:36.937Z,100798.22
2022-09-10T22:19:20.495Z,100794.06
2022-09-10T22:22:00.559Z,100804.78
2022-09-10T22:24:41.149Z,100803.13
2022-09-10T22:27:24.798Z,100805.53
2022-09-10T22:30:07.795Z,100802.56
2022-09-10T22:32:49.816Z,100805.41
2022-09-10T22:35:30.981Z,100796.09
2022-09-10T22:38:10.588Z,100802.47
2022-09-10T22:40:51.365Z,100795.06
2022-09-10T22:43:30.609Z,100795.72
2022-09-10T22:46:10.974Z,100798.41
2022-09-10T22:48:53.683Z,100812.81
2022-09-10T22:51:36.396Z,100817.34
2022-09-10T22:54:16.554Z,100803.28
2022-09-10T22:56:58.663Z,100805.50
2022-09-10T22:59:39.438Z,100811.06
2022-09-10T23:02:20.055Z,100815.94
2022-09-10T23:05:01.146Z,100818.78
2022-09-10T23:07:41.308Z,100816.16
2022-09-10T23:10:21.101Z,100823.00
2022-09-10T23:13:01.003Z,100824.38
2022-09-10T23:15:40.816Z,100829.06
2022-09-10T23:18:20.533Z,100825.56
2022-09-10T23:21:04.688Z,100822.25
2022-09-10T23:23:47.021Z,100828.44
2022-09-10T23:26:27.242Z,100832.47
2022-09-10T23:29:07.934Z,100840.66
2022-09-10T23:31:47.964Z,100836.50
2022-09-10T23:34:29.343Z,100848.41
2022-09-10T23:37:09.971Z,100843.59
2022-09-10T23:39:50.558Z,100845.81
2022-09-10T23:42:30.910Z,100842.81
2022-09-10T23:45:11.606Z,100848.16
2022-09-10T23:47:53.581Z,100850.00
2022-09-10T23:50:35.014Z,100843.34
2022-09-10T23:53:15.644Z,100847.06
2022-09-10T23:55:58.009Z,100836.53
2022-09-10T23:58:37.209Z,100840.41
